»·PEaware :: N101WS KCMA-KSBA

N101WS :: KCMA-KSBA

FLIGHT INFORMATION

Flight Status: Arrived
Operator: Privately registered:
United States
More flights under this callsign
Pilot: Mark K. (33451)
Aircraft: CESSNA 172 SKYHAWK
(C172)
More flights by this aircraft type
Origin: KCMA Camarillo
United States
Destination: KSBA Santa Barbara Mun
United States
More flights between these airports :: More routes between these airports
Route: VTU282 KWANG
File this flight plan on PilotEdge
Remarks:
Altitude:
(Current/Filed)
4,000ft
Speed:
(Current/Filed)
105kts
Departed: 17-Feb-21 10:40 PM
Arrived: 17-Feb-21 11:20 PM
Distance/Time
Traveled:
40nm/0:39
Distance/Time
To Go:
Arrived

Flight Plot

Page will automatically refresh every two minutes.


Map Options




Map Legend


Flown Route
Filed Route
Departure Airport
Arrival Airport
Navaid (VOR, NDB)
Fix

Horizontal Profiles

Position Reports

Time Latitude Longitude Heading Altitude Ground
Speed
17-Feb-21 22:20 34.210712 -119.091489 360 66ft 0kts
17-Feb-21 22:21 34.210712 -119.091489 360 66ft 0kts
17-Feb-21 22:22 34.210712 -119.091489 360 66ft 0kts
17-Feb-21 22:23 34.210712 -119.091489 360 66ft 0kts
17-Feb-21 22:24 34.210712 -119.091489 360 66ft 0kts
17-Feb-21 22:25 34.210712 -119.091489 360 66ft 0kts
17-Feb-21 22:26 34.210712 -119.091489 360 66ft 0kts
17-Feb-21 22:27 34.210712 -119.091489 360 66ft 0kts
17-Feb-21 22:28 34.210712 -119.091489 360 66ft 0kts
17-Feb-21 22:29 34.210712 -119.091489 360 66ft 0kts
17-Feb-21 22:30 34.210712 -119.091489 360 66ft 0kts
17-Feb-21 22:31 34.210712 -119.091489 360 66ft 0kts
17-Feb-21 22:32 34.210712 -119.091489 360 66ft 0kts
17-Feb-21 22:33 34.210712 -119.091489 360 66ft 0kts
17-Feb-21 22:34 34.210712 -119.091489 360 66ft 0kts
17-Feb-21 22:35 34.210818 -119.091471 19 66ft 7kts
17-Feb-21 22:36 34.210936 -119.085190 90 73ft 21kts
17-Feb-21 22:37 34.212796 -119.084624 355 76ft 0kts
17-Feb-21 22:38 34.213719 -119.086398 268 74ft 34kts
17-Feb-21 22:39 34.215368 -119.115250 284 755ft 100kts
17-Feb-21 22:40 34.222919 -119.148973 285 1450ft 105kts
17-Feb-21 22:41 34.230027 -119.183217 285 2142ft 104kts
17-Feb-21 22:42 34.236355 -119.216979 285 2830ft 102kts
17-Feb-21 22:43 34.241957 -119.250627 285 3523ft 101kts
17-Feb-21 22:44 34.246925 -119.284885 281 3982ft 115kts
17-Feb-21 22:45 34.246424 -119.325121 274 3976ft 120kts
17-Feb-21 22:46 34.247129 -119.365176 291 3974ft 115kts
17-Feb-21 22:47 34.258606 -119.401138 304 3976ft 112kts
17-Feb-21 22:48 34.273618 -119.434404 303 3978ft 112kts
17-Feb-21 22:49 34.288245 -119.467704 303 3980ft 112kts
17-Feb-21 22:50 34.302821 -119.500957 303 3982ft 111kts
17-Feb-21 22:51 34.316006 -119.534745 299 3984ft 111kts
17-Feb-21 22:52 34.328199 -119.568730 300 4007ft 110kts
17-Feb-21 22:53 34.340484 -119.602929 300 4007ft 110kts
17-Feb-21 22:54 34.348858 -119.638735 259 4020ft 126kts
17-Feb-21 22:55 34.335928 -119.678887 258 4008ft 128kts
17-Feb-21 22:56 34.323902 -119.719534 257 4011ft 128kts
17-Feb-21 22:57 34.311847 -119.760205 258 4013ft 129kts
17-Feb-21 22:58 34.299694 -119.801185 257 4012ft 129kts
17-Feb-21 22:59 34.287483 -119.842360 258 4011ft 130kts
17-Feb-21 23:00 34.279407 -119.883737 271 4012ft 124kts
17-Feb-21 23:01 34.275992 -119.925328 273 4010ft 124kts
17-Feb-21 23:02 34.272586 -119.967092 274 4012ft 124kts
17-Feb-21 23:03 34.269182 -120.008719 272 4015ft 125kts
17-Feb-21 23:04 34.265767 -120.050239 272 4019ft 123kts
17-Feb-21 23:05 34.276343 -120.082403 338 4011ft 105kts
17-Feb-21 23:06 34.302127 -120.086990 356 3578ft 86kts
17-Feb-21 23:07 34.326926 -120.087769 359 3172ft 88kts
17-Feb-21 23:08 34.350788 -120.088129 358 2844ft 82kts
17-Feb-21 23:09 34.372531 -120.088565 357 2851ft 83kts
17-Feb-21 23:10 34.398154 -120.088986 358 2837ft 94kts
17-Feb-21 23:11 34.420597 -120.077911 63 2642ft 104kts
17-Feb-21 23:12 34.423654 -120.042043 79 2532ft 110kts
17-Feb-21 23:13 34.424527 -120.004459 78 2519ft 112kts
17-Feb-21 23:14 34.425063 -119.970072 77 2054ft 94kts
17-Feb-21 23:15 34.425785 -119.937052 79 1465ft 92kts
17-Feb-21 23:16 34.426485 -119.907583 78 873ft 88kts
17-Feb-21 23:17 34.426086 -119.878549 73 458ft 75kts
17-Feb-21 23:18 34.427351 -119.855112 74 41ft 58kts
17-Feb-21 23:19 34.427474 -119.845939 184 14ft 19kts
17-Feb-21 23:20 34.426702 -119.850901 298 14ft 2kts
17-Feb-21 23:21 34.426722 -119.850615 150 14ft 0kts
17-Feb-21 23:22 34.426626 -119.850548 150 14ft 0kts
17-Feb-21 23:23 34.426530 -119.850481 150 14ft 0kts
17-Feb-21 23:24 34.426434 -119.850415 150 14ft 0kts
17-Feb-21 23:25 34.426339 -119.850349 150 14ft 0kts
17-Feb-21 23:26 34.426288 -119.850313 149 14ft 0kts
17-Feb-21 23:27 34.426288 -119.850313 149 14ft 0kts

Navigation Log

Ident Type
Flight plan parsing failed, navigation log unavailable